Time;durP1;ratioP1;P1;durP2;ratioP2;P2;SDS_P1;SDS_P2;PMS_P1;PMS_P2;Temp;Humidity;BMP_temperature;BMP_pressure;BME280_temperature;BME280_humidity;BME280_pressure;Samples;Min_cycle;Max_cycle;Signal;HPM_P1;HPM_P2
2021/03/17 00:00:25;;;;;;;3.30;1.38;;;5.20;92.40;;;;;;5055560;28;20159;-73
2021/03/17 00:02:51;;;;;;;7.97;2.63;;;5.20;92.40;;;;;;5054861;28;20033;-73
2021/03/17 00:05:31;;;;;;;8.02;1.65;;;5.20;92.10;;;;;;5055170;28;20040;-73
2021/03/17 00:07:57;;;;;;;7.88;1.70;;;5.20;92.30;;;;;;5055373;28;20055;-73
2021/03/17 00:10:25;;;;;;;5.47;1.90;;;5.20;92.30;;;;;;5055949;28;20041;-73
2021/03/17 00:12:53;;;;;;;4.97;1.58;;;5.10;92.20;;;;;;5055729;28;20041;-73
2021/03/17 00:15:21;;;;;;;7.55;2.28;;;5.10;92.20;;;;;;5054833;28;20390;-73
2021/03/17 00:17:48;;;;;;;6.43;1.45;;;5.20;92.10;;;;;;5037294;28;20044;-73
2021/03/17 00:20:14;;;;;;;8.95;1.58;;;5.20;92.30;;;;;;5055620;28;20037;-73
2021/03/17 00:22:40;;;;;;;5.85;1.67;;;5.20;92.40;;;;;;5055693;28;20041;-73
2021/03/17 00:25:07;;;;;;;9.25;1.52;;;5.30;92.50;;;;;;5055233;28;20389;-73
2021/03/17 00:27:33;;;;;;;9.63;1.80;;;5.20;92.00;;;;;;5055116;28;20350;-73
2021/03/17 00:29:59;;;;;;;5.30;1.02;;;5.20;92.10;;;;;;5055394;28;20044;-73
2021/03/17 00:32:25;;;;;;;5.13;1.73;;;5.10;92.10;;;;;;5055034;28;20099;-73
2021/03/17 00:34:51;;;;;;;11.57;3.05;;;5.10;92.10;;;;;;5055053;28;20515;-73
2021/03/17 00:37:17;;;;;;;6.15;1.77;;;5.10;91.70;;;;;;5054932;28;20542;-73
2021/03/17 00:39:43;;;;;;;10.40;1.45;;;5.10;91.50;;;;;;5055267;28;20037;-73
2021/03/17 00:42:09;;;;;;;6.18;2.15;;;5.10;91.50;;;;;;5054650;28;20064;-73
2021/03/17 00:44:35;;;;;;;6.78;1.55;;;5.10;91.50;;;;;;5054531;28;20140;-73
2021/03/17 00:47:01;;;;;;;6.47;1.40;;;5.00;91.40;;;;;;5054956;28;20076;-73
2021/03/17 00:49:26;;;;;;;12.75;1.60;;;5.00;91.40;;;;;;5054737;28;20431;-73
2021/03/17 00:51:52;;;;;;;5.93;1.60;;;5.00;91.50;;;;;;5054531;28;20032;-73
2021/03/17 00:54:18;;;;;;;5.18;1.65;;;4.90;91.30;;;;;;5054379;28;20044;-73
2021/03/17 00:56:44;;;;;;;4.78;1.10;;;4.80;91.10;;;;;;5054407;28;20044;-73
2021/03/17 00:59:10;;;;;;;8.32;1.33;;;4.70;91.40;;;;;;5054316;28;20485;-73
2021/03/17 01:01:35;;;;;;;8.05;1.27;;;4.60;91.10;;;;;;5036899;28;20033;-73
2021/03/17 01:04:01;;;;;;;3.80;1.00;;;4.30;91.40;;;;;;5054122;28;20044;-73
2021/03/17 01:06:27;;;;;;;5.15;1.10;;;4.30;91.60;;;;;;5053905;28;20159;-73
2021/03/17 01:08:53;;;;;;;8.52;1.33;;;4.10;91.50;;;;;;5054637;28;20112;-73
2021/03/17 01:11:19;;;;;;;5.10;1.58;;;4.10;91.80;;;;;;5053997;28;20068;-73
2021/03/17 01:13:44;;;;;;;8.30;1.23;;;4.00;91.80;;;;;;5053059;28;20041;-73
2021/03/17 01:16:10;;;;;;;7.22;1.25;;;3.90;91.90;;;;;;5053329;28;20068;-73
2021/03/17 01:18:36;;;;;;;6.55;1.35;;;3.90;92.00;;;;;;5053738;28;20393;-73
2021/03/17 01:21:02;;;;;;;8.68;1.70;;;3.90;92.20;;;;;;5054489;28;20043;-73
2021/03/17 01:23:28;;;;;;;8.05;1.23;;;3.90;92.30;;;;;;5054212;28;20817;-73
2021/03/17 01:25:54;;;;;;;7.22;1.42;;;4.00;92.20;;;;;;5053493;28;20041;-73
2021/03/17 01:28:20;;;;;;;7.40;1.40;;;4.00;92.20;;;;;;5053717;28;20041;-73
2021/03/17 01:30:53;;;;;;;9.40;1.55;;;4.00;92.30;;;;;;5054119;28;20040;-73
2021/03/17 01:33:20;;;;;;;8.48;1.52;;;4.20;92.50;;;;;;5053646;28;20044;-73
2021/03/17 01:35:47;;;;;;;4.50;1.63;;;4.10;92.40;;;;;;5053482;28;20551;-73
2021/03/17 01:38:13;;;;;;;6.45;1.38;;;4.00;92.30;;;;;;5053705;28;20485;-73
2021/03/17 01:40:42;;;;;;;10.80;1.90;;;4.20;92.60;;;;;;5053845;28;20029;-73
2021/03/17 01:43:08;;;;;;;12.02;2.10;;;4.20;92.50;;;;;;5053621;28;20056;-73
2021/03/17 01:45:34;;;;;;;10.70;1.77;;;4.20;92.30;;;;;;5035612;28;20443;-73
2021/03/17 01:48:00;;;;;;;12.57;2.42;;;4.10;92.30;;;;;;5053533;28;20041;-73
2021/03/17 01:50:33;;;;;;;14.18;2.05;;;4.10;92.30;;;;;;5053322;28;20496;-73
2021/03/17 01:53:11;;;;;;;6.53;1.80;;;4.10;92.50;;;;;;5053484;28;20119;-73
2021/03/17 01:55:38;;;;;;;7.93;1.60;;;4.10;92.50;;;;;;5052995;28;20041;-73
2021/03/17 01:58:04;;;;;;;5.50;1.98;;;4.20;92.50;;;;;;5053668;28;20051;-73
2021/03/17 02:00:31;;;;;;;6.57;1.70;;;4.20;92.50;;;;;;5053885;28;20143;-73
2021/03/17 02:02:57;;;;;;;10.05;2.20;;;4.20;92.30;;;;;;5053202;28;20055;-73
2021/03/17 02:05:32;;;;;;;8.40;1.65;;;4.20;92.20;;;;;;5053080;28;20041;-73
2021/03/17 02:08:02;;;;;;;9.52;1.70;;;4.20;92.20;;;;;;5053336;28;20044;-73
2021/03/17 02:10:28;;;;;;;8.65;2.55;;;4.20;92.20;;;;;;5053898;28;20032;-73
2021/03/17 02:13:24;;;;;;;7.88;1.90;;;4.20;92.40;;;;;;5053317;28;20037;-73
2021/03/17 02:16:14;;;;;;;13.50;3.75;;;4.30;92.50;;;;;;5053203;28;20045;-73
2021/03/17 02:19:13;;;;;;;7.15;2.53;;;4.20;92.50;;;;;;5036007;28;20041;-73
2021/03/17 02:22:16;;;;;;;7.82;2.20;;;4.30;92.50;;;;;;5053618;28;20083;-73
2021/03/17 02:25:06;;;;;;;6.50;1.70;;;4.20;92.90;;;;;;5052876;28;20496;-73
2021/03/17 02:27:53;;;;;;;6.18;1.60;;;4.30;92.60;;;;;;5053473;28;20131;-73
2021/03/17 02:30:40;;;;;;;4.43;1.92;;;4.20;92.60;;;;;;5053717;28;20068;-73
2021/03/17 02:33:40;;;;;;;13.63;2.33;;;4.20;92.50;;;;;;5052993;28;20502;-73
2021/03/17 02:36:33;;;;;;;8.75;1.92;;;4.30;92.80;;;;;;5052893;28;20040;-73
2021/03/17 02:39:13;;;;;;;13.57;3.17;;;4.20;92.40;;;;;;5039918;28;20091;-73
2021/03/17 02:41:45;;;;;;;3.78;1.80;;;4.30;92.70;;;;;;5053410;28;20675;-73
2021/03/17 02:44:16;;;;;;;6.47;2.00;;;4.20;92.60;;;;;;5053334;28;20041;-73
2021/03/17 02:46:44;;;;;;;11.13;2.47;;;4.30;92.70;;;;;;5053271;28;20438;-73
2021/03/17 02:49:17;;;;;;;6.32;2.00;;;4.30;92.60;;;;;;5053048;28;20037;-73
2021/03/17 02:51:47;;;;;;;10.70;2.05;;;4.30;92.60;;;;;;5053371;28;20075;-73
2021/03/17 02:54:15;;;;;;;9.88;2.20;;;4.30;92.60;;;;;;5052828;28;20041;-73
2021/03/17 02:56:51;;;;;;;15.60;2.67;;;4.20;92.70;;;;;;5052558;28;20041;-73
2021/03/17 02:59:20;;;;;;;10.30;2.50;;;4.30;92.70;;;;;;5053203;28;20048;-73
2021/03/17 03:01:51;;;;;;;10.07;2.45;;;4.20;92.70;;;;;;5052670;28;20037;-73
2021/03/17 03:04:18;;;;;;;5.75;1.70;;;4.20;92.60;;;;;;5053367;28;20068;-73
2021/03/17 03:06:46;;;;;;;5.85;3.35;;;4.20;92.50;;;;;;5052392;28;20037;-73
2021/03/17 03:09:12;;;;;;;7.57;1.77;;;4.20;92.20;;;;;;5053250;28;20041;-73
2021/03/17 03:11:38;;;;;;;7.03;1.85;;;4.20;92.10;;;;;;5035264;28;20052;-73
2021/03/17 03:14:05;;;;;;;12.20;1.65;;;4.10;92.10;;;;;;5034757;28;20045;-73
2021/03/17 03:16:33;;;;;;;5.43;1.38;;;4.10;92.00;;;;;;5052284;28;20063;-73
2021/03/17 03:19:01;;;;;;;4.05;1.63;;;4.00;91.90;;;;;;5052908;28;20041;-73
2021/03/17 03:21:27;;;;;;;6.93;1.30;;;3.90;92.10;;;;;;5052615;28;20458;-73
2021/03/17 03:23:55;;;;;;;4.93;1.25;;;3.90;92.30;;;;;;5053172;28;20065;-73
2021/03/17 03:26:21;;;;;;;5.47;1.63;;;3.80;92.30;;;;;;5052283;28;20041;-73
2021/03/17 03:28:49;;;;;;;5.20;1.70;;;3.80;92.40;;;;;;5052665;28;20040;-73
2021/03/17 03:31:17;;;;;;;4.95;1.33;;;3.80;92.40;;;;;;5052815;28;20037;-73
2021/03/17 03:33:43;;;;;;;7.57;1.30;;;3.80;92.60;;;;;;5052469;28;20040;-73
2021/03/17 03:36:09;;;;;;;6.22;1.35;;;3.80;92.60;;;;;;5052359;28;20037;-73
2021/03/17 03:38:35;;;;;;;4.75;1.52;;;3.80;92.60;;;;;;5054705;28;20037;-73
2021/03/17 03:41:01;;;;;;;10.57;1.50;;;3.80;92.60;;;;;;5056035;28;20047;-73
2021/03/17 03:43:27;;;;;;;9.75;1.50;;;3.80;92.50;;;;;;5056230;28;20045;-73
2021/03/17 03:45:53;;;;;;;5.20;2.22;;;3.80;92.50;;;;;;5055769;28;20033;-73
2021/03/17 03:48:19;;;;;;;5.70;1.38;;;3.70;92.50;;;;;;5055898;28;20037;-73
2021/03/17 03:50:49;;;;;;;7.82;2.22;;;3.80;92.30;;;;;;5056268;28;20090;-73
2021/03/17 03:53:39;;;;;;;6.50;1.20;;;3.70;92.60;;;;;;5038526;28;20037;-73
2021/03/17 03:56:10;;;;;;;10.95;1.67;;;3.70;92.40;;;;;;5055572;28;20434;-73
2021/03/17 03:59:07;;;;;;;6.63;1.23;;;3.70;92.50;;;;;;5055852;28;20116;-73
2021/03/17 04:01:44;;;;;;;5.03;2.25;;;3.70;92.40;;;;;;5054696;28;20052;-73
2021/03/17 04:04:12;;;;;;;4.88;0.90;;;3.70;92.40;;;;;;5056129;28;20041;-73
2021/03/17 04:06:41;;;;;;;5.82;1.70;;;3.70;92.50;;;;;;5037552;28;20477;-73
2021/03/17 04:09:09;;;;;;;7.05;1.35;;;3.80;92.60;;;;;;5055416;28;20094;-73
2021/03/17 04:11:38;;;;;;;5.10;1.50;;;3.70;92.30;;;;;;5056108;28;20037;-73
2021/03/17 04:14:09;;;;;;;6.72;1.25;;;3.80;92.40;;;;;;5038162;28;20086;-73
2021/03/17 04:16:36;;;;;;;9.52;1.35;;;3.80;92.40;;;;;;5055127;28;20124;-73
2021/03/17 04:19:02;;;;;;;13.95;2.15;;;3.70;92.50;;;;;;5055599;28;20104;-73
2021/03/17 04:21:31;;;;;;;6.28;1.70;;;3.80;92.50;;;;;;5055219;28;20040;-73
2021/03/17 04:24:01;;;;;;;5.70;1.67;;;3.70;92.50;;;;;;5037896;28;20037;-73
2021/03/17 04:26:28;;;;;;;7.10;1.40;;;3.70;92.30;;;;;;5055248;28;20037;-73
2021/03/17 04:28:56;;;;;;;5.90;1.48;;;3.80;92.40;;;;;;5054985;28;20480;-73
2021/03/17 04:31:22;;;;;;;5.22;1.70;;;3.70;92.30;;;;;;5037269;28;20045;-73
2021/03/17 04:33:49;;;;;;;6.18;1.60;;;3.70;92.10;;;;;;5054833;28;20136;-73
2021/03/17 04:36:16;;;;;;;5.43;1.50;;;3.70;92.20;;;;;;5054788;28;20065;-73
2021/03/17 04:38:42;;;;;;;7.22;1.55;;;3.70;92.30;;;;;;5054722;28;20041;-73
2021/03/17 04:41:10;;;;;;;6.03;1.30;;;3.70;92.10;;;;;;5054759;28;20029;-73
2021/03/17 04:43:40;;;;;;;9.40;1.63;;;3.70;92.10;;;;;;5054807;28;20048;-73
2021/03/17 04:46:06;;;;;;;3.42;1.35;;;3.80;92.20;;;;;;5054672;28;20090;-73
2021/03/17 04:48:35;;;;;;;6.95;1.63;;;3.80;92.40;;;;;;5054945;28;20041;-73
2021/03/17 04:51:01;;;;;;;12.38;2.15;;;3.80;92.40;;;;;;5037247;28;20086;-73
2021/03/17 04:53:27;;;;;;;9.20;1.80;;;3.80;92.50;;;;;;5054455;28;20040;-73
2021/03/17 04:55:53;;;;;;;7.10;2.13;;;3.80;92.40;;;;;;5054626;28;20040;-73
2021/03/17 04:58:24;;;;;;;12.18;2.40;;;3.70;92.50;;;;;;5054730;28;20041;-73
2021/03/17 05:00:50;;;;;;;7.03;1.20;;;3.70;92.70;;;;;;5054997;28;20044;-73
2021/03/17 05:03:23;;;;;;;8.43;1.60;;;3.70;92.20;;;;;;5054517;28;20041;-73
2021/03/17 05:05:51;;;;;;;9.20;1.98;;;3.60;92.00;;;;;;5054335;28;20472;-73
2021/03/17 05:08:19;;;;;;;13.98;2.42;;;3.70;91.90;;;;;;5054519;28;20094;-73
2021/03/17 05:10:47;;;;;;;5.13;1.20;;;3.70;91.90;;;;;;5054386;28;20037;-73
2021/03/17 05:13:14;;;;;;;4.18;1.50;;;3.60;91.50;;;;;;5054134;28;20476;-73
2021/03/17 05:15:40;;;;;;;7.75;1.25;;;3.60;91.40;;;;;;5053934;28;20032;-73
2021/03/17 05:18:07;;;;;;;6.80;1.20;;;3.50;91.30;;;;;;5054266;28;20035;-73
2021/03/17 05:20:34;;;;;;;6.45;1.45;;;3.50;91.40;;;;;;5054049;28;20041;-73
2021/03/17 05:23:01;;;;;;;4.25;1.10;;;3.60;91.50;;;;;;5054127;28;20033;-73
2021/03/17 05:25:28;;;;;;;6.78;2.63;;;3.50;91.30;;;;;;5054095;28;20040;-73
2021/03/17 05:28:04;;;;;;;9.45;1.55;;;3.60;91.30;;;;;;5053807;28;20033;-73
2021/03/17 05:30:32;;;;;;;9.43;1.35;;;3.60;91.40;;;;;;5054012;28;20393;-73
2021/03/17 05:33:00;;;;;;;7.38;1.10;;;3.60;91.80;;;;;;5036622;28;20461;-73
2021/03/17 05:35:26;;;;;;;7.15;1.38;;;3.60;91.60;;;;;;5053478;28;20039;-73
2021/03/17 05:37:52;;;;;;;5.85;1.70;;;3.60;91.80;;;;;;5053744;28;20489;-73
2021/03/17 05:40:18;;;;;;;5.82;1.30;;;3.70;91.80;;;;;;5036166;28;20051;-73
2021/03/17 05:42:45;;;;;;;4.25;1.52;;;3.70;92.10;;;;;;5054356;28;20445;-73
2021/03/17 05:45:12;;;;;;;11.52;2.78;;;3.70;92.00;;;;;;5053823;28;20037;-73
2021/03/17 05:47:42;;;;;;;10.02;2.38;;;3.70;92.00;;;;;;5054113;28;20091;-73
2021/03/17 05:50:08;;;;;;;6.13;1.50;;;3.70;92.00;;;;;;5053973;28;20041;-73
2021/03/17 05:52:34;;;;;;;7.00;1.52;;;3.80;92.00;;;;;;5053633;28;20037;-73
2021/03/17 05:55:01;;;;;;;15.55;2.50;;;3.80;91.80;;;;;;5053445;28;20036;-73
2021/03/17 05:57:28;;;;;;;9.82;2.55;;;3.80;92.10;;;;;;5036130;28;20057;-73
2021/03/17 05:59:54;;;;;;;9.80;1.77;;;3.90;92.00;;;;;;5053350;28;20052;-73
2021/03/17 06:02:21;;;;;;;9.00;1.95;;;3.90;92.10;;;;;;5053867;28;20045;-73
2021/03/17 06:04:49;;;;;;;6.35;2.10;;;4.00;92.00;;;;;;5053109;28;20498;-73
2021/03/17 06:07:22;;;;;;;6.40;2.25;;;4.00;92.10;;;;;;5053602;28;20116;-73
2021/03/17 06:09:48;;;;;;;10.48;1.83;;;4.00;91.80;;;;;;5035940;28;20044;-73
2021/03/17 06:12:15;;;;;;;7.47;1.88;;;4.00;91.50;;;;;;5053546;28;20037;-73
2021/03/17 06:14:43;;;;;;;8.85;1.83;;;3.90;91.70;;;;;;5053200;28;20230;-73
2021/03/17 06:17:16;;;;;;;8.35;2.28;;;3.90;91.80;;;;;;5053506;28;20037;-73
2021/03/17 06:19:43;;;;;;;6.95;1.48;;;3.90;91.60;;;;;;5053748;28;20461;-73
2021/03/17 06:22:09;;;;;;;7.68;1.60;;;3.80;91.60;;;;;;5053118;28;20064;-73
2021/03/17 06:24:36;;;;;;;4.95;1.95;;;3.90;91.70;;;;;;5052788;28;20064;-73
2021/03/17 06:27:04;;;;;;;8.77;1.60;;;3.90;91.70;;;;;;5053092;28;20053;-73
2021/03/17 06:29:30;;;;;;;10.15;2.53;;;3.90;91.60;;;;;;5035360;28;20463;-73
2021/03/17 06:31:56;;;;;;;8.32;1.90;;;3.90;91.50;;;;;;5053031;28;20037;-73
2021/03/17 06:34:22;;;;;;;5.03;1.73;;;3.90;91.20;;;;;;5052927;28;20045;-73
2021/03/17 06:36:57;;;;;;;10.27;1.77;;;3.90;91.30;;;;;;5053178;28;20505;-73
2021/03/17 06:39:23;;;;;;;8.05;1.20;;;3.90;91.20;;;;;;5053092;28;20098;-73
2021/03/17 06:41:52;;;;;;;4.97;1.75;;;3.90;90.80;;;;;;5053519;28;20044;-73
2021/03/17 06:44:28;;;;;;;12.43;1.40;;;3.90;90.80;;;;;;5035119;28;20129;-73
2021/03/17 06:47:20;;;;;;;4.97;1.27;;;3.90;90.40;;;;;;5053092;28;20477;-74
2021/03/17 06:49:49;;;;;;;8.48;1.42;;;4.00;90.60;;;;;;5053381;28;20037;-74
2021/03/17 06:52:37;;;;;;;9.48;1.40;;;4.00;90.80;;;;;;5052789;28;20033;-74
2021/03/17 06:55:10;;;;;;;5.35;1.58;;;4.10;90.70;;;;;;5052477;28;20114;-74
2021/03/17 06:57:38;;;;;;;7.47;1.90;;;4.10;90.30;;;;;;5052867;28;20467;-74
2021/03/17 07:00:22;;;;;;;13.93;2.00;;;4.20;90.60;;;;;;5053241;28;20368;-74
2021/03/17 07:03:08;;;;;;;;;;;4.20;90.60;;;;;;5035868;28;20033;-74
2021/03/17 07:05:40;;;;;;;8.60;2.05;;;4.20;90.70;;;;;;5038605;28;20502;-74
2021/03/17 07:08:33;;;;;;;9.77;1.85;;;4.20;90.90;;;;;;5053108;28;20114;-74
2021/03/17 07:11:01;;;;;;;9.97;2.30;;;4.40;90.60;;;;;;5048072;28;20053;-74
2021/03/17 07:13:28;;;;;;;10.43;2.10;;;4.80;90.20;;;;;;5056983;28;20405;-74
2021/03/17 07:15:55;;;;;;;10.52;2.03;;;5.00;88.60;;;;;;5056090;28;20044;-74
2021/03/17 07:18:26;;;;;;;7.18;1.80;;;5.30;88.80;;;;;;5056154;28;20125;-74
2021/03/17 07:21:04;;;;;;;6.72;1.90;;;5.40;87.00;;;;;;5056757;28;20041;-74
2021/03/17 07:23:36;;;;;;;7.97;1.70;;;5.50;86.20;;;;;;5056212;28;20416;-74
2021/03/17 07:26:22;;;;;;;6.35;1.60;;;5.70;85.50;;;;;;5055856;28;20144;-74
2021/03/17 07:28:48;;;;;;;8.50;2.17;;;5.90;85.70;;;;;;5056332;28;20041;-74
2021/03/17 07:31:32;;;;;;;9.48;2.33;;;6.10;84.30;;;;;;5056390;28;20043;-74
2021/03/17 07:34:17;;;;;;;8.40;2.22;;;6.20;81.40;;;;;;5055812;28;20045;-74
2021/03/17 07:36:56;;;;;;;8.13;1.70;;;6.30;79.50;;;;;;5055617;28;20041;-74
2021/03/17 07:39:31;;;;;;;10.57;2.00;;;6.40;80.00;;;;;;5038136;28;20219;-74
2021/03/17 07:41:59;;;;;;;10.05;2.67;;;6.40;79.40;;;;;;5056087;28;20037;-73
2021/03/17 07:44:26;;;;;;;5.95;1.48;;;6.50;79.10;;;;;;5056522;28;20037;-73
2021/03/17 07:46:54;;;;;;;11.32;1.77;;;6.60;79.20;;;;;;5055931;28;20124;-73
2021/03/17 07:49:22;;;;;;;6.78;1.60;;;6.70;77.80;;;;;;5056042;28;20052;-73
2021/03/17 07:51:59;;;;;;;12.27;2.25;;;6.50;75.90;;;;;;5055770;28;20064;-73
2021/03/17 07:54:31;;;;;;;13.57;2.33;;;6.70;75.30;;;;;;5056104;28;20043;-75
2021/03/17 07:56:58;;;;;;;9.40;1.67;;;6.80;74.90;;;;;;5055637;28;20047;-74
2021/03/17 07:59:24;;;;;;;10.50;2.60;;;6.70;75.40;;;;;;5055606;28;20446;-74
2021/03/17 08:01:57;;;;;;;11.70;1.42;;;6.60;75.10;;;;;;5055874;28;20040;-74
2021/03/17 08:04:28;;;;;;;8.77;1.50;;;6.40;74.40;;;;;;5037450;28;20419;-74
2021/03/17 08:06:56;;;;;;;6.32;1.58;;;6.20;75.50;;;;;;5038221;28;20766;-74
2021/03/17 08:09:22;;;;;;;6.20;1.85;;;5.90;75.30;;;;;;5056045;28;20533;-73
2021/03/17 08:11:49;;;;;;;7.18;2.00;;;5.90;75.60;;;;;;5055564;28;20120;-74
2021/03/17 08:14:16;;;;;;;17.77;1.92;;;5.80;76.60;;;;;;5055485;28;20111;-73
2021/03/17 08:16:42;;;;;;;11.75;1.55;;;5.70;76.30;;;;;;5037230;28;20182;-73
2021/03/17 08:19:29;;;;;;;8.00;1.77;;;5.70;76.00;;;;;;5055737;28;20567;-73
2021/03/17 08:22:00;;;;;;;13.52;2.40;;;5.80;75.10;;;;;;5054989;28;20033;-73
2021/03/17 08:24:36;;;;;;;11.40;1.70;;;6.00;74.90;;;;;;5036462;28;20570;-73
2021/03/17 08:27:22;;;;;;;13.10;1.80;;;5.90;73.60;;;;;;5055314;28;20045;-73
2021/03/17 08:29:51;;;;;;;5.93;1.30;;;6.20;74.30;;;;;;5055365;28;20052;-73
2021/03/17 08:32:20;;;;;;;9.68;2.20;;;6.40;74.30;;;;;;5055133;28;20041;-73
2021/03/17 08:35:02;;;;;;;6.72;1.63;;;6.50;72.20;;;;;;5036880;28;20044;-73
2021/03/17 08:37:51;;;;;;;12.15;1.92;;;6.40;72.80;;;;;;5054822;28;20033;-73
2021/03/17 08:40:32;;;;;;;13.45;2.42;;;6.20;71.80;;;;;;5054889;28;20037;-73
2021/03/17 08:42:58;;;;;;;10.98;1.40;;;6.20;72.60;;;;;;5055055;28;20044;-73
2021/03/17 08:45:24;;;;;;;12.32;2.85;;;6.20;73.40;;;;;;5037025;28;20175;-74
2021/03/17 08:47:52;;;;;;;9.90;2.28;;;6.20;74.90;;;;;;5054689;28;20127;-72
2021/03/17 08:50:22;;;;;;;8.45;1.80;;;6.20;75.00;;;;;;5054955;28;20029;-73
2021/03/17 08:52:49;;;;;;;10.85;1.70;;;6.20;75.20;;;;;;5054968;28;20522;-72
2021/03/17 08:55:17;;;;;;;10.07;1.70;;;6.10;75.00;;;;;;5054003;28;20453;-75
2021/03/17 08:57:55;;;;;;;11.80;1.92;;;6.00;74.90;;;;;;5054557;28;20041;-74
2021/03/17 09:00:47;;;;;;;11.38;2.53;;;6.10;74.90;;;;;;5054623;28;20072;-72
2021/03/17 09:03:34;;;;;;;6.88;1.60;;;6.20;75.60;;;;;;5050447;28;20063;-72
2021/03/17 09:06:27;;;;;;;13.63;2.60;;;6.20;76.20;;;;;;5054110;28;20548;-73
2021/03/17 09:09:05;;;;;;;13.40;2.20;;;6.20;76.50;;;;;;5053992;28;20056;-72
2021/03/17 09:11:31;;;;;;;7.78;2.15;;;6.10;76.40;;;;;;5054167;28;20250;-72
2021/03/17 09:14:00;;;;;;;18.40;2.25;;;6.00;77.60;;;;;;5054052;28;20151;-72
2021/03/17 09:16:26;;;;;;;6.55;2.30;;;6.00;78.50;;;;;;5053796;28;20064;-72
2021/03/17 09:19:08;;;;;;;9.88;1.75;;;6.00;77.60;;;;;;5053924;28;20052;-73
2021/03/17 09:21:36;;;;;;;5.82;1.73;;;6.20;76.80;;;;;;5054132;28;20037;-73
2021/03/17 09:24:02;;;;;;;12.10;2.15;;;6.10;76.60;;;;;;5053858;28;20045;-72
2021/03/17 09:26:29;;;;;;;13.20;2.08;;;6.10;73.90;;;;;;5035924;28;20068;-72
2021/03/17 09:28:56;;;;;;;12.68;2.75;;;6.30;72.80;;;;;;5053590;28;20044;-72
2021/03/17 09:31:23;;;;;;;14.18;1.58;;;6.60;72.90;;;;;;5053749;28;20041;-72
2021/03/17 09:33:49;;;;;;;6.93;1.52;;;6.80;70.30;;;;;;5053724;28;20041;-72
2021/03/17 09:36:23;;;;;;;4.35;1.38;;;6.70;67.80;;;;;;5034815;28;20061;-72
2021/03/17 09:38:51;;;;;;;8.50;2.17;;;6.60;67.70;;;;;;5036152;28;20112;-72
2021/03/17 09:41:29;;;;;;;8.77;1.55;;;6.70;66.80;;;;;;5053621;28;20087;-73
2021/03/17 09:43:59;;;;;;;5.90;1.80;;;6.80;66.70;;;;;;5035983;28;20469;-73
2021/03/17 09:46:28;;;;;;;7.25;2.28;;;7.10;69.50;;;;;;5053612;28;20032;-73
2021/03/17 09:48:56;;;;;;;8.07;2.42;;;6.70;69.60;;;;;;5053964;28;20041;-73
2021/03/17 09:51:27;;;;;;;9.98;2.90;;;6.60;71.90;;;;;;5053962;28;20037;-71
2021/03/17 09:53:55;;;;;;;6.75;1.60;;;6.60;70.40;;;;;;5053520;28;20041;-72
2021/03/17 09:56:40;;;;;;;9.73;2.13;;;6.90;71.20;;;;;;5053204;28;20072;-73
2021/03/17 09:59:33;;;;;;;7.78;1.67;;;6.80;67.90;;;;;;5053273;28;20080;-72
2021/03/17 10:02:17;;;;;;;11.00;2.10;;;6.70;68.90;;;;;;5042942;28;20049;-73
2021/03/17 10:04:48;;;;;;;7.07;1.80;;;6.50;68.90;;;;;;5035106;28;20075;-73
2021/03/17 10:07:20;;;;;;;6.90;1.67;;;6.50;69.60;;;;;;5053530;28;20120;-73
2021/03/17 10:09:47;;;;;;;9.15;1.55;;;6.70;69.20;;;;;;5053103;28;20033;-73
2021/03/17 10:12:34;;;;;;;13.07;2.45;;;7.00;68.90;;;;;;5053304;28;20423;-74
2021/03/17 10:15:02;;;;;;;11.75;1.65;;;6.90;68.80;;;;;;5052414;28;20103;-73
2021/03/17 10:17:29;;;;;;;11.60;1.80;;;7.20;69.70;;;;;;5053006;28;20041;-73
2021/03/17 10:20:06;;;;;;;14.73;1.73;;;7.20;68.50;;;;;;5053321;28;20029;-73
2021/03/17 10:22:32;;;;;;;8.25;1.73;;;7.20;67.80;;;;;;5053430;28;20060;-72
2021/03/17 10:25:00;;;;;;;9.90;1.55;;;7.30;66.80;;;;;;5035145;28;20094;-73
2021/03/17 10:27:30;;;;;;;8.02;1.70;;;7.10;66.20;;;;;;5052870;28;20496;-73
2021/03/17 10:30:08;;;;;;;9.50;1.50;;;7.20;67.20;;;;;;5053395;28;20044;-73
2021/03/17 10:32:39;;;;;;;10.38;1.85;;;7.10;66.00;;;;;;5052858;28;20377;-72
2021/03/17 10:35:09;;;;;;;8.68;1.13;;;7.00;65.50;;;;;;5052625;28;20474;-73
2021/03/17 10:37:35;;;;;;;6.97;1.77;;;7.20;62.80;;;;;;5052707;28;20036;-72
2021/03/17 10:40:32;;;;;;;4.72;0.95;;;7.40;61.40;;;;;;5052859;28;20087;-73
2021/03/17 10:43:10;;;;;;;7.57;2.63;;;7.30;59.40;;;;;;5048219;28;20452;-72
2021/03/17 10:45:51;;;;;;;5.10;1.20;;;7.50;60.90;;;;;;5034760;28;20120;-72
2021/03/17 10:48:25;;;;;;;4.85;1.20;;;7.50;60.00;;;;;;5056716;28;20098;-72
2021/03/17 10:50:51;;;;;;;;;;;7.60;61.20;;;;;;5057266;28;20041;-72
2021/03/17 10:53:21;;;;;;;6.95;2.15;;;7.80;61.70;;;;;;5057072;28;20328;-73
2021/03/17 10:55:48;;;;;;;10.05;1.17;;;7.50;61.50;;;;;;5057230;28;20039;-73
2021/03/17 10:58:17;;;;;;;7.85;1.08;;;7.40;61.70;;;;;;5056442;28;20421;-72
2021/03/17 11:00:45;;;;;;;3.72;0.82;;;7.20;61.40;;;;;;5056514;28;20094;-72
2021/03/17 11:03:24;;;;;;;3.45;0.85;;;7.20;58.30;;;;;;5056396;28;20403;-73
2021/03/17 11:05:50;;;;;;;12.70;1.77;;;7.20;59.60;;;;;;5056184;28;20037;-73
2021/03/17 11:08:16;;;;;;;5.07;1.20;;;7.30;61.70;;;;;;5056626;28;20069;-73
2021/03/17 11:10:47;;;;;;;6.20;1.20;;;7.40;62.50;;;;;;5056667;28;20073;-73
2021/03/17 11:13:12;;;;;;;8.38;1.20;;;7.40;62.90;;;;;;5056716;28;20087;-72
2021/03/17 11:15:45;;;;;;;9.20;1.50;;;7.20;62.70;;;;;;5056266;28;20033;-72
2021/03/17 11:18:28;;;;;;;4.03;1.00;;;7.10;62.40;;;;;;5056339;28;20033;-73
2021/03/17 11:21:08;;;;;;;8.07;1.40;;;7.20;63.70;;;;;;5056953;28;20041;-73
2021/03/17 11:23:40;;;;;;;6.65;1.60;;;7.10;62.10;;;;;;5056444;28;20119;-73
2021/03/17 11:26:16;;;;;;;4.05;0.90;;;7.10;61.50;;;;;;5056328;28;20064;-73
2021/03/17 11:28:42;;;;;;;7.22;1.30;;;7.20;61.30;;;;;;5056686;28;20045;-73
2021/03/17 11:31:10;;;;;;;3.33;0.70;;;7.30;59.30;;;;;;5056200;28;20037;-73
2021/03/17 11:33:37;;;;;;;3.97;1.10;;;7.10;57.10;;;;;;5055975;28;20116;-73
2021/03/17 11:36:05;;;;;;;3.72;0.88;;;7.10;58.10;;;;;;5055920;28;20073;-73
2021/03/17 11:38:31;;;;;;;4.18;1.55;;;7.30;59.90;;;;;;5056285;28;20037;-73
2021/03/17 11:40:58;;;;;;;9.40;1.33;;;7.30;57.50;;;;;;5056371;28;20063;-73
2021/03/17 11:43:27;;;;;;;2.83;0.70;;;7.30;58.10;;;;;;5056513;28;20041;-73
2021/03/17 11:45:55;;;;;;;9.05;1.40;;;7.30;59.20;;;;;;5055750;28;20095;-74
2021/03/17 11:48:21;;;;;;;4.88;1.35;;;7.40;59.60;;;;;;5056502;28;20033;-73
2021/03/17 11:50:52;;;;;;;6.68;1.25;;;7.40;59.50;;;;;;5055833;28;20064;-73
2021/03/17 11:53:19;;;;;;;6.93;1.33;;;7.50;60.40;;;;;;5038409;28;20037;-73
2021/03/17 11:55:46;;;;;;;4.63;0.80;;;7.20;59.00;;;;;;5055755;28;20136;-74
2021/03/17 11:58:13;;;;;;;6.88;1.02;;;7.30;59.00;;;;;;5054670;28;20044;-73
2021/03/17 12:00:39;;;;;;;5.63;0.88;;;7.40;59.50;;;;;;5073315;28;20036;-73
2021/03/17 12:03:06;;;;;;;6.78;1.10;;;7.50;59.20;;;;;;5075709;28;20056;-73
2021/03/17 12:05:32;;;;;;;7.78;1.48;;;7.50;56.70;;;;;;5075691;28;20032;-73
2021/03/17 12:07:58;;;;;;;6.35;1.50;;;7.50;57.50;;;;;;5075464;28;20037;-73
2021/03/17 12:10:26;;;;;;;5.97;1.05;;;7.50;57.40;;;;;;5075930;28;20079;-73
2021/03/17 12:12:53;;;;;;;4.22;0.70;;;7.50;57.20;;;;;;5058177;28;20040;-73
2021/03/17 12:15:21;;;;;;;5.22;0.90;;;7.50;56.90;;;;;;5075315;28;20040;-73
2021/03/17 12:17:47;;;;;;;5.63;1.33;;;7.50;57.40;;;;;;5075309;28;20040;-71
2021/03/17 12:20:15;;;;;;;2.70;0.80;;;7.50;56.60;;;;;;5075773;28;20039;-74
2021/03/17 12:22:42;;;;;;;4.70;0.90;;;7.50;55.80;;;;;;5060653;28;20052;-72
2021/03/17 12:25:09;;;;;;;4.00;1.40;;;7.50;55.20;;;;;;5037422;28;20048;-72
2021/03/17 12:27:36;;;;;;;4.03;0.98;;;7.60;55.80;;;;;;5055058;28;20587;-72
2021/03/17 12:30:04;;;;;;;5.88;0.82;;;7.50;56.00;;;;;;5055138;28;20040;-72
2021/03/17 12:32:30;;;;;;;6.63;1.05;;;7.50;54.30;;;;;;5055594;28;20041;-72
2021/03/17 12:34:58;;;;;;;3.67;0.93;;;7.40;53.90;;;;;;5054977;28;20120;-73
2021/03/17 12:37:26;;;;;;;5.53;0.85;;;7.40;55.00;;;;;;5054924;28;20472;-73
2021/03/17 12:39:51;;;;;;;5.28;1.38;;;7.70;55.10;;;;;;5055383;28;20041;-73
2021/03/17 12:42:17;;;;;;;4.72;1.25;;;7.50;56.40;;;;;;5055445;28;20037;-73
2021/03/17 12:44:43;;;;;;;4.88;0.90;;;7.60;57.30;;;;;;5054619;28;20119;-73
2021/03/17 12:47:09;;;;;;;4.35;1.42;;;7.70;57.00;;;;;;5054928;28;20036;-73
2021/03/17 12:49:35;;;;;;;5.38;0.90;;;7.60;57.00;;;;;;5054668;28;20037;-72
2021/03/17 12:52:02;;;;;;;6.43;1.10;;;7.50;58.10;;;;;;5054375;28;20063;-72
2021/03/17 12:54:28;;;;;;;9.43;1.65;;;7.40;58.50;;;;;;5054567;28;20041;-72
2021/03/17 12:56:54;;;;;;;4.47;1.08;;;7.50;58.90;;;;;;5054189;28;20037;-72
2021/03/17 12:59:19;;;;;;;3.75;0.98;;;7.50;58.50;;;;;;5054233;28;20045;-72
2021/03/17 13:01:45;;;;;;;4.60;1.02;;;7.60;57.60;;;;;;5054934;28;20041;-72
2021/03/17 13:04:11;;;;;;;8.50;0.95;;;7.60;57.30;;;;;;5054593;28;20044;-72
2021/03/17 13:06:38;;;;;;;4.15;1.20;;;7.50;58.90;;;;;;5054017;28;20052;-72
2021/03/17 13:09:06;;;;;;;4.00;1.23;;;7.50;58.30;;;;;;5053829;28;20491;-72
2021/03/17 13:11:33;;;;;;;3.55;0.80;;;7.60;58.30;;;;;;5054516;28;20048;-72